Anthony, Idaho
Current Conditions -  °F | °C
As of 6:35 AM on Tuesday 21 Oct 2014 (Local Time) from KWYS Reporting Station
Light Rain Light Rain  
Wind Chill: 24°   Ceiling: 6000
Heat Index: 32°   Visibility: 10mi
Dew Point: 32°   Wind: 10mph
Humidity: 100%   Direction: 100°E
Pressure: 29.92"   Gusts: NA
Location:  44.2887°N, 111.507°W
Report Text: KWYS 211235Z AUTO 10009KT 10SM -RA SCT043 BKN060 OVC065 00/00 A2992 RMK AO2
Loading
Personal Weather Stations






























Interactive Weather Map New forecast layout! Learn more

10-Day Weather Forecast

Advertisements
Track Severe Weather on mobile